sensor_id;sensor_type;location;lat;lon;timestamp;P1;durP1;ratioP1;P2;durP2;ratioP2
82159;SDS011;71734;50.876;7.372;2024-03-06T00:00:47;33.55;;;14.63;;
82159;SDS011;71734;50.876;7.372;2024-03-06T00:03:15;29.77;;;13.93;;
82159;SDS011;71734;50.876;7.372;2024-03-06T00:05:41;29.95;;;13.32;;
82159;SDS011;71734;50.876;7.372;2024-03-06T00:08:08;30.15;;;13.63;;
82159;SDS011;71734;50.876;7.372;2024-03-06T00:10:36;29.98;;;13.45;;
82159;SDS011;71734;50.876;7.372;2024-03-06T00:13:02;30.85;;;13.50;;
82159;SDS011;71734;50.876;7.372;2024-03-06T00:15:29;31.45;;;13.70;;
82159;SDS011;71734;50.876;7.372;2024-03-06T00:17:56;33.08;;;14.25;;
82159;SDS011;71734;50.876;7.372;2024-03-06T00:20:25;32.08;;;13.23;;
82159;SDS011;71734;50.876;7.372;2024-03-06T00:22:53;27.95;;;14.02;;
82159;SDS011;71734;50.876;7.372;2024-03-06T00:25:20;29.55;;;13.40;;
82159;SDS011;71734;50.876;7.372;2024-03-06T00:27:47;30.17;;;13.90;;
82159;SDS011;71734;50.876;7.372;2024-03-06T00:30:14;28.33;;;13.32;;
82159;SDS011;71734;50.876;7.372;2024-03-06T00:32:40;29.70;;;13.77;;
82159;SDS011;71734;50.876;7.372;2024-03-06T00:35:07;31.35;;;14.35;;
82159;SDS011;71734;50.876;7.372;2024-03-06T00:37:35;27.98;;;12.60;;
82159;SDS011;71734;50.876;7.372;2024-03-06T00:40:02;31.08;;;13.32;;
82159;SDS011;71734;50.876;7.372;2024-03-06T00:42:29;27.00;;;12.82;;
82159;SDS011;71734;50.876;7.372;2024-03-06T00:44:56;29.10;;;12.45;;
82159;SDS011;71734;50.876;7.372;2024-03-06T00:47:22;29.83;;;13.45;;
82159;SDS011;71734;50.876;7.372;2024-03-06T00:49:49;31.40;;;14.55;;
82159;SDS011;71734;50.876;7.372;2024-03-06T00:52:16;29.02;;;13.98;;
82159;SDS011;71734;50.876;7.372;2024-03-06T00:54:44;32.08;;;13.77;;
82159;SDS011;71734;50.876;7.372;2024-03-06T00:57:10;32.05;;;14.70;;
82159;SDS011;71734;50.876;7.372;2024-03-06T00:59:37;33.53;;;15.23;;
82159;SDS011;71734;50.876;7.372;2024-03-06T01:02:03;32.42;;;14.77;;
82159;SDS011;71734;50.876;7.372;2024-03-06T01:04:31;27.23;;;13.45;;
82159;SDS011;71734;50.876;7.372;2024-03-06T01:06:57;26.70;;;13.13;;
82159;SDS011;71734;50.876;7.372;2024-03-06T01:09:24;27.75;;;12.13;;
82159;SDS011;71734;50.876;7.372;2024-03-06T01:11:53;29.13;;;12.57;;
82159;SDS011;71734;50.876;7.372;2024-03-06T01:14:19;26.27;;;12.05;;
82159;SDS011;71734;50.876;7.372;2024-03-06T01:16:45;26.27;;;12.35;;
82159;SDS011;71734;50.876;7.372;2024-03-06T01:19:12;28.92;;;13.15;;
82159;SDS011;71734;50.876;7.372;2024-03-06T01:21:39;30.05;;;13.77;;
82159;SDS011;71734;50.876;7.372;2024-03-06T01:24:05;26.40;;;12.93;;
82159;SDS011;71734;50.876;7.372;2024-03-06T01:26:32;25.95;;;12.88;;
82159;SDS011;71734;50.876;7.372;2024-03-06T01:29:00;26.25;;;12.00;;
82159;SDS011;71734;50.876;7.372;2024-03-06T01:31:27;29.40;;;12.20;;
82159;SDS011;71734;50.876;7.372;2024-03-06T01:33:53;24.70;;;11.75;;
82159;SDS011;71734;50.876;7.372;2024-03-06T01:36:20;29.02;;;13.02;;
82159;SDS011;71734;50.876;7.372;2024-03-06T01:38:46;29.63;;;13.20;;
82159;SDS011;71734;50.876;7.372;2024-03-06T01:41:13;29.17;;;13.85;;
82159;SDS011;71734;50.876;7.372;2024-03-06T01:43:40;29.10;;;13.60;;
82159;SDS011;71734;50.876;7.372;2024-03-06T01:46:08;29.05;;;13.10;;
82159;SDS011;71734;50.876;7.372;2024-03-06T01:48:35;32.00;;;14.35;;
82159;SDS011;71734;50.876;7.372;2024-03-06T01:51:02;28.35;;;12.40;;
82159;SDS011;71734;50.876;7.372;2024-03-06T01:53:31;28.85;;;12.40;;
82159;SDS011;71734;50.876;7.372;2024-03-06T01:55:58;29.52;;;13.40;;
82159;SDS011;71734;50.876;7.372;2024-03-06T01:58:26;29.10;;;13.50;;
82159;SDS011;71734;50.876;7.372;2024-03-06T02:00:53;28.20;;;12.55;;
82159;SDS011;71734;50.876;7.372;2024-03-06T02:03:21;27.98;;;12.43;;
82159;SDS011;71734;50.876;7.372;2024-03-06T02:05:48;28.65;;;12.80;;
82159;SDS011;71734;50.876;7.372;2024-03-06T02:08:15;27.10;;;12.05;;
82159;SDS011;71734;50.876;7.372;2024-03-06T02:10:43;25.75;;;11.68;;
82159;SDS011;71734;50.876;7.372;2024-03-06T02:13:11;27.25;;;12.70;;
82159;SDS011;71734;50.876;7.372;2024-03-06T02:15:38;26.58;;;12.32;;
82159;SDS011;71734;50.876;7.372;2024-03-06T02:18:05;26.45;;;11.95;;
82159;SDS011;71734;50.876;7.372;2024-03-06T02:20:35;28.27;;;13.07;;
82159;SDS011;71734;50.876;7.372;2024-03-06T02:23:03;25.23;;;12.30;;
82159;SDS011;71734;50.876;7.372;2024-03-06T02:25:30;24.98;;;11.25;;
82159;SDS011;71734;50.876;7.372;2024-03-06T02:27:57;25.50;;;10.93;;
82159;SDS011;71734;50.876;7.372;2024-03-06T02:30:24;22.70;;;10.70;;
82159;SDS011;71734;50.876;7.372;2024-03-06T02:32:50;29.45;;;12.52;;
82159;SDS011;71734;50.876;7.372;2024-03-06T02:35:17;24.80;;;11.23;;
82159;SDS011;71734;50.876;7.372;2024-03-06T02:37:45;28.65;;;12.60;;
82159;SDS011;71734;50.876;7.372;2024-03-06T02:40:12;25.80;;;12.05;;
82159;SDS011;71734;50.876;7.372;2024-03-06T02:42:38;26.02;;;12.70;;
82159;SDS011;71734;50.876;7.372;2024-03-06T02:45:05;26.63;;;12.07;;
82159;SDS011;71734;50.876;7.372;2024-03-06T02:47:32;26.25;;;12.13;;
82159;SDS011;71734;50.876;7.372;2024-03-06T02:49:59;28.08;;;12.60;;
82159;SDS011;71734;50.876;7.372;2024-03-06T02:52:26;27.92;;;12.70;;
82159;SDS011;71734;50.876;7.372;2024-03-06T02:54:54;28.40;;;12.80;;
82159;SDS011;71734;50.876;7.372;2024-03-06T02:57:20;27.13;;;12.90;;
82159;SDS011;71734;50.876;7.372;2024-03-06T02:59:47;25.40;;;11.80;;
82159;SDS011;71734;50.876;7.372;2024-03-06T03:02:14;25.30;;;11.60;;
82159;SDS011;71734;50.876;7.372;2024-03-06T03:04:40;25.63;;;11.82;;
82159;SDS011;71734;50.876;7.372;2024-03-06T03:07:07;26.02;;;11.65;;
82159;SDS011;71734;50.876;7.372;2024-03-06T03:09:35;25.70;;;11.60;;
82159;SDS011;71734;50.876;7.372;2024-03-06T03:12:04;25.70;;;11.70;;
82159;SDS011;71734;50.876;7.372;2024-03-06T03:14:31;26.48;;;11.68;;
82159;SDS011;71734;50.876;7.372;2024-03-06T03:16:59;25.92;;;12.68;;
82159;SDS011;71734;50.876;7.372;2024-03-06T03:19:26;28.75;;;12.55;;
82159;SDS011;71734;50.876;7.372;2024-03-06T03:21:53;25.13;;;11.68;;
82159;SDS011;71734;50.876;7.372;2024-03-06T03:24:19;24.35;;;11.50;;
82159;SDS011;71734;50.876;7.372;2024-03-06T03:26:46;24.63;;;10.95;;
82159;SDS011;71734;50.876;7.372;2024-03-06T03:29:14;24.42;;;11.25;;
82159;SDS011;71734;50.876;7.372;2024-03-06T03:31:41;23.75;;;10.95;;
82159;SDS011;71734;50.876;7.372;2024-03-06T03:34:08;23.90;;;10.63;;
82159;SDS011;71734;50.876;7.372;2024-03-06T03:36:39;24.05;;;10.77;;
82159;SDS011;71734;50.876;7.372;2024-03-06T03:39:06;21.95;;;10.40;;
82159;SDS011;71734;50.876;7.372;2024-03-06T03:41:38;21.50;;;10.05;;
82159;SDS011;71734;50.876;7.372;2024-03-06T03:44:09;22.48;;;10.82;;
82159;SDS011;71734;50.876;7.372;2024-03-06T03:46:37;21.80;;;10.27;;
82159;SDS011;71734;50.876;7.372;2024-03-06T03:49:04;21.83;;;10.98;;
82159;SDS011;71734;50.876;7.372;2024-03-06T03:51:30;22.80;;;10.98;;
82159;SDS011;71734;50.876;7.372;2024-03-06T03:53:57;22.83;;;10.10;;
82159;SDS011;71734;50.876;7.372;2024-03-06T03:56:24;21.58;;;10.27;;
82159;SDS011;71734;50.876;7.372;2024-03-06T03:58:50;22.02;;;10.25;;
82159;SDS011;71734;50.876;7.372;2024-03-06T04:01:17;22.23;;;11.10;;
82159;SDS011;71734;50.876;7.372;2024-03-06T04:03:45;20.48;;;9.70;;
82159;SDS011;71734;50.876;7.372;2024-03-06T04:06:13;23.17;;;10.80;;
82159;SDS011;71734;50.876;7.372;2024-03-06T04:08:40;19.88;;;10.07;;
82159;SDS011;71734;50.876;7.372;2024-03-06T04:11:06;21.90;;;10.73;;
82159;SDS011;71734;50.876;7.372;2024-03-06T04:13:34;22.58;;;10.80;;
82159;SDS011;71734;50.876;7.372;2024-03-06T04:16:02;24.83;;;10.85;;
82159;SDS011;71734;50.876;7.372;2024-03-06T04:18:29;21.90;;;10.30;;
82159;SDS011;71734;50.876;7.372;2024-03-06T04:21:00;23.30;;;10.10;;
82159;SDS011;71734;50.876;7.372;2024-03-06T04:23:29;22.17;;;10.13;;
82159;SDS011;71734;50.876;7.372;2024-03-06T04:25:55;24.00;;;10.43;;
82159;SDS011;71734;50.876;7.372;2024-03-06T04:28:22;21.90;;;10.13;;
82159;SDS011;71734;50.876;7.372;2024-03-06T04:30:49;20.23;;;10.25;;
82159;SDS011;71734;50.876;7.372;2024-03-06T04:33:15;26.88;;;10.77;;
82159;SDS011;71734;50.876;7.372;2024-03-06T04:35:42;24.17;;;11.38;;
82159;SDS011;71734;50.876;7.372;2024-03-06T04:38:10;22.35;;;10.02;;
82159;SDS011;71734;50.876;7.372;2024-03-06T04:40:36;22.33;;;10.45;;
82159;SDS011;71734;50.876;7.372;2024-03-06T04:43:03;20.25;;;9.25;;
82159;SDS011;71734;50.876;7.372;2024-03-06T04:45:30;21.40;;;10.27;;
82159;SDS011;71734;50.876;7.372;2024-03-06T04:47:57;21.58;;;10.27;;
82159;SDS011;71734;50.876;7.372;2024-03-06T04:50:24;24.02;;;10.80;;
82159;SDS011;71734;50.876;7.372;2024-03-06T04:52:52;20.70;;;9.80;;
82159;SDS011;71734;50.876;7.372;2024-03-06T04:55:20;22.80;;;10.48;;
82159;SDS011;71734;50.876;7.372;2024-03-06T04:57:48;21.80;;;10.27;;
82159;SDS011;71734;50.876;7.372;2024-03-06T05:00:15;23.70;;;10.43;;
82159;SDS011;71734;50.876;7.372;2024-03-06T05:02:43;22.40;;;10.48;;
82159;SDS011;71734;50.876;7.372;2024-03-06T05:05:10;21.15;;;10.00;;
82159;SDS011;71734;50.876;7.372;2024-03-06T05:07:36;21.77;;;9.93;;
82159;SDS011;71734;50.876;7.372;2024-03-06T05:10:03;24.92;;;9.85;;
82159;SDS011;71734;50.876;7.372;2024-03-06T05:12:34;22.08;;;9.93;;
82159;SDS011;71734;50.876;7.372;2024-03-06T05:15:00;23.27;;;10.07;;
82159;SDS011;71734;50.876;7.372;2024-03-06T05:17:27;20.63;;;9.77;;
82159;SDS011;71734;50.876;7.372;2024-03-06T05:19:54;21.65;;;10.05;;
82159;SDS011;71734;50.876;7.372;2024-03-06T05:22:21;23.38;;;11.10;;
82159;SDS011;71734;50.876;7.372;2024-03-06T05:24:48;20.92;;;10.13;;
82159;SDS011;71734;50.876;7.372;2024-03-06T05:27:14;22.95;;;9.95;;
82159;SDS011;71734;50.876;7.372;2024-03-06T05:29:43;20.63;;;9.38;;
82159;SDS011;71734;50.876;7.372;2024-03-06T05:32:10;19.10;;;9.02;;
82159;SDS011;71734;50.876;7.372;2024-03-06T05:34:37;21.67;;;9.65;;
82159;SDS011;71734;50.876;7.372;2024-03-06T05:37:03;21.38;;;9.82;;
82159;SDS011;71734;50.876;7.372;2024-03-06T05:39:30;20.90;;;9.50;;
82159;SDS011;71734;50.876;7.372;2024-03-06T05:41:59;22.92;;;10.68;;
82159;SDS011;71734;50.876;7.372;2024-03-06T05:44:27;20.80;;;10.27;;
82159;SDS011;71734;50.876;7.372;2024-03-06T05:46:56;21.38;;;10.05;;
82159;SDS011;71734;50.876;7.372;2024-03-06T05:49:23;18.75;;;9.52;;
82159;SDS011;71734;50.876;7.372;2024-03-06T05:51:50;21.17;;;9.70;;
82159;SDS011;71734;50.876;7.372;2024-03-06T05:54:17;21.88;;;10.23;;
82159;SDS011;71734;50.876;7.372;2024-03-06T05:56:44;21.02;;;10.35;;
82159;SDS011;71734;50.876;7.372;2024-03-06T05:59:11;20.58;;;10.07;;
82159;SDS011;71734;50.876;7.372;2024-03-06T06:01:38;21.17;;;10.45;;
82159;SDS011;71734;50.876;7.372;2024-03-06T06:04:06;22.63;;;11.00;;
82159;SDS011;71734;50.876;7.372;2024-03-06T06:06:34;21.98;;;9.52;;
82159;SDS011;71734;50.876;7.372;2024-03-06T06:09:00;21.83;;;9.73;;
82159;SDS011;71734;50.876;7.372;2024-03-06T06:11:28;20.65;;;10.40;;
82159;SDS011;71734;50.876;7.372;2024-03-06T06:13:55;19.58;;;9.88;;
82159;SDS011;71734;50.876;7.372;2024-03-06T06:16:22;20.73;;;10.00;;
82159;SDS011;71734;50.876;7.372;2024-03-06T06:18:48;20.85;;;9.15;;
82159;SDS011;71734;50.876;7.372;2024-03-06T06:21:16;19.98;;;9.52;;
82159;SDS011;71734;50.876;7.372;2024-03-06T06:23:43;18.77;;;9.35;;
82159;SDS011;71734;50.876;7.372;2024-03-06T06:26:10;18.55;;;9.00;;
82159;SDS011;71734;50.876;7.372;2024-03-06T06:28:36;16.85;;;8.43;;
82159;SDS011;71734;50.876;7.372;2024-03-06T06:31:03;20.90;;;8.88;;
82159;SDS011;71734;50.876;7.372;2024-03-06T06:33:30;19.85;;;9.30;;
82159;SDS011;71734;50.876;7.372;2024-03-06T06:35:56;21.70;;;9.40;;
82159;SDS011;71734;50.876;7.372;2024-03-06T06:38:24;19.42;;;8.40;;
82159;SDS011;71734;50.876;7.372;2024-03-06T06:40:51;18.65;;;8.80;;
82159;SDS011;71734;50.876;7.372;2024-03-06T06:43:18;20.13;;;9.25;;
82159;SDS011;71734;50.876;7.372;2024-03-06T06:45:45;20.60;;;9.25;;
82159;SDS011;71734;50.876;7.372;2024-03-06T06:48:11;20.73;;;9.80;;
82159;SDS011;71734;50.876;7.372;2024-03-06T06:50:38;18.95;;;9.00;;
82159;SDS011;71734;50.876;7.372;2024-03-06T06:53:04;19.58;;;9.05;;
82159;SDS011;71734;50.876;7.372;2024-03-06T06:55:32;18.63;;;8.35;;
82159;SDS011;71734;50.876;7.372;2024-03-06T06:58:01;16.60;;;8.43;;
82159;SDS011;71734;50.876;7.372;2024-03-06T07:00:27;18.75;;;8.30;;
82159;SDS011;71734;50.876;7.372;2024-03-06T07:02:55;17.98;;;9.05;;
82159;SDS011;71734;50.876;7.372;2024-03-06T07:05:23;15.73;;;7.72;;
82159;SDS011;71734;50.876;7.372;2024-03-06T07:07:51;18.15;;;8.52;;
82159;SDS011;71734;50.876;7.372;2024-03-06T07:10:18;18.08;;;7.82;;
82159;SDS011;71734;50.876;7.372;2024-03-06T07:12:46;19.95;;;8.00;;
82159;SDS011;71734;50.876;7.372;2024-03-06T07:15:15;16.95;;;8.20;;
82159;SDS011;71734;50.876;7.372;2024-03-06T07:17:42;16.10;;;8.57;;
82159;SDS011;71734;50.876;7.372;2024-03-06T07:20:09;18.70;;;10.82;;
82159;SDS011;71734;50.876;7.372;2024-03-06T07:22:36;16.10;;;8.18;;
82159;SDS011;71734;50.876;7.372;2024-03-06T07:25:03;36.65;;;8.23;;
82159;SDS011;71734;50.876;7.372;2024-03-06T07:27:31;20.40;;;8.18;;
82159;SDS011;71734;50.876;7.372;2024-03-06T07:29:59;25.40;;;7.85;;
82159;SDS011;71734;50.876;7.372;2024-03-06T07:32:26;18.00;;;7.60;;
82159;SDS011;71734;50.876;7.372;2024-03-06T07:34:52;16.25;;;7.25;;
82159;SDS011;71734;50.876;7.372;2024-03-06T07:37:19;15.43;;;7.00;;
82159;SDS011;71734;50.876;7.372;2024-03-06T07:39:46;14.57;;;7.47;;
82159;SDS011;71734;50.876;7.372;2024-03-06T07:42:13;13.82;;;6.85;;
82159;SDS011;71734;50.876;7.372;2024-03-06T07:44:40;15.13;;;7.28;;
82159;SDS011;71734;50.876;7.372;2024-03-06T07:47:08;15.85;;;7.38;;
82159;SDS011;71734;50.876;7.372;2024-03-06T07:49:35;16.48;;;6.95;;
82159;SDS011;71734;50.876;7.372;2024-03-06T07:52:01;15.45;;;7.25;;
82159;SDS011;71734;50.876;7.372;2024-03-06T07:54:28;16.40;;;7.13;;
82159;SDS011;71734;50.876;7.372;2024-03-06T07:57:05;15.15;;;7.22;;
82159;SDS011;71734;50.876;7.372;2024-03-06T07:59:32;16.35;;;7.90;;
82159;SDS011;71734;50.876;7.372;2024-03-06T08:01:58;15.02;;;7.18;;
82159;SDS011;71734;50.876;7.372;2024-03-06T08:04:28;16.88;;;7.90;;
82159;SDS011;71734;50.876;7.372;2024-03-06T08:06:54;16.50;;;8.57;;
82159;SDS011;71734;50.876;7.372;2024-03-06T08:09:21;16.10;;;8.35;;
82159;SDS011;71734;50.876;7.372;2024-03-06T08:11:48;17.63;;;8.65;;
82159;SDS011;71734;50.876;7.372;2024-03-06T08:14:15;15.82;;;7.50;;
82159;SDS011;71734;50.876;7.372;2024-03-06T08:16:42;14.70;;;7.38;;
82159;SDS011;71734;50.876;7.372;2024-03-06T08:19:09;15.02;;;7.70;;
82159;SDS011;71734;50.876;7.372;2024-03-06T08:21:38;15.63;;;7.07;;
82159;SDS011;71734;50.876;7.372;2024-03-06T08:24:05;15.45;;;7.65;;
82159;SDS011;71734;50.876;7.372;2024-03-06T08:26:31;14.75;;;7.18;;
82159;SDS011;71734;50.876;7.372;2024-03-06T08:28:58;15.70;;;7.60;;
82159;SDS011;71734;50.876;7.372;2024-03-06T08:31:24;16.52;;;7.68;;
82159;SDS011;71734;50.876;7.372;2024-03-06T08:33:54;14.27;;;6.40;;
82159;SDS011;71734;50.876;7.372;2024-03-06T08:36:21;16.02;;;7.93;;
82159;SDS011;71734;50.876;7.372;2024-03-06T08:38:58;15.48;;;7.20;;
82159;SDS011;71734;50.876;7.372;2024-03-06T08:41:24;15.80;;;7.55;;
82159;SDS011;71734;50.876;7.372;2024-03-06T08:43:51;16.40;;;7.22;;
82159;SDS011;71734;50.876;7.372;2024-03-06T08:46:25;16.10;;;8.10;;
82159;SDS011;71734;50.876;7.372;2024-03-06T08:48:51;16.00;;;7.57;;
82159;SDS011;71734;50.876;7.372;2024-03-06T08:51:24;18.13;;;8.45;;
82159;SDS011;71734;50.876;7.372;2024-03-06T08:53:52;17.63;;;7.63;;
82159;SDS011;71734;50.876;7.372;2024-03-06T08:56:25;16.73;;;7.68;;
82159;SDS011;71734;50.876;7.372;2024-03-06T08:58:52;16.38;;;7.85;;
82159;SDS011;71734;50.876;7.372;2024-03-06T09:01:18;19.83;;;8.25;;
82159;SDS011;71734;50.876;7.372;2024-03-06T09:03:52;16.48;;;7.85;;
82159;SDS011;71734;50.876;7.372;2024-03-06T09:06:19;17.70;;;8.18;;
82159;SDS011;71734;50.876;7.372;2024-03-06T09:08:48;20.65;;;8.82;;
82159;SDS011;71734;50.876;7.372;2024-03-06T09:11:16;16.63;;;7.78;;
82159;SDS011;71734;50.876;7.372;2024-03-06T09:13:43;18.55;;;7.65;;
82159;SDS011;71734;50.876;7.372;2024-03-06T09:16:17;16.95;;;8.10;;
82159;SDS011;71734;50.876;7.372;2024-03-06T09:18:44;18.08;;;8.10;;
82159;SDS011;71734;50.876;7.372;2024-03-06T09:21:12;16.90;;;7.72;;
82159;SDS011;71734;50.876;7.372;2024-03-06T09:23:39;19.23;;;8.27;;
82159;SDS011;71734;50.876;7.372;2024-03-06T09:26:07;17.60;;;7.68;;
82159;SDS011;71734;50.876;7.372;2024-03-06T09:28:38;18.05;;;7.28;;
82159;SDS011;71734;50.876;7.372;2024-03-06T09:31:04;17.88;;;8.20;;
82159;SDS011;71734;50.876;7.372;2024-03-06T09:33:31;17.52;;;8.00;;
82159;SDS011;71734;50.876;7.372;2024-03-06T09:36:05;19.13;;;8.05;;
82159;SDS011;71734;50.876;7.372;2024-03-06T09:38:32;18.02;;;8.15;;
82159;SDS011;71734;50.876;7.372;2024-03-06T09:41:05;21.48;;;8.57;;
82159;SDS011;71734;50.876;7.372;2024-03-06T09:43:32;19.85;;;8.43;;
82159;SDS011;71734;50.876;7.372;2024-03-06T09:46:03;22.10;;;8.90;;
82159;SDS011;71734;50.876;7.372;2024-03-06T09:48:30;18.05;;;7.32;;
82159;SDS011;71734;50.876;7.372;2024-03-06T09:51:00;17.90;;;8.02;;
82159;SDS011;71734;50.876;7.372;2024-03-06T09:53:31;20.05;;;8.32;;
82159;SDS011;71734;50.876;7.372;2024-03-06T09:55:58;18.48;;;7.93;;
82159;SDS011;71734;50.876;7.372;2024-03-06T09:58:28;20.10;;;8.32;;
82159;SDS011;71734;50.876;7.372;2024-03-06T10:03:50;22.05;;;8.85;;
82159;SDS011;71734;50.876;7.372;2024-03-06T10:06:16;20.65;;;8.80;;
82159;SDS011;71734;50.876;7.372;2024-03-06T10:08:43;19.92;;;8.57;;
82159;SDS011;71734;50.876;7.372;2024-03-06T10:11:16;20.15;;;8.50;;
82159;SDS011;71734;50.876;7.372;2024-03-06T10:13:44;19.52;;;7.60;;
82159;SDS011;71734;50.876;7.372;2024-03-06T10:16:16;19.63;;;7.80;;
82159;SDS011;71734;50.876;7.372;2024-03-06T10:18:43;19.38;;;8.25;;
82159;SDS011;71734;50.876;7.372;2024-03-06T10:21:10;21.23;;;8.50;;
82159;SDS011;71734;50.876;7.372;2024-03-06T10:23:45;18.63;;;7.25;;
82159;SDS011;71734;50.876;7.372;2024-03-06T10:26:18;19.02;;;8.25;;
82159;SDS011;71734;50.876;7.372;2024-03-06T10:28:46;20.30;;;8.27;;
82159;SDS011;71734;50.876;7.372;2024-03-06T10:31:14;18.65;;;8.45;;
82159;SDS011;71734;50.876;7.372;2024-03-06T10:33:49;18.90;;;7.82;;
82159;SDS011;71734;50.876;7.372;2024-03-06T10:36:16;19.92;;;8.27;;
82159;SDS011;71734;50.876;7.372;2024-03-06T10:38:50;19.55;;;8.20;;
82159;SDS011;71734;50.876;7.372;2024-03-06T10:41:18;18.90;;;8.02;;
82159;SDS011;71734;50.876;7.372;2024-03-06T10:43:53;19.02;;;7.93;;
82159;SDS011;71734;50.876;7.372;2024-03-06T10:46:30;20.25;;;7.25;;
82159;SDS011;71734;50.876;7.372;2024-03-06T10:49:10;21.23;;;8.18;;
82159;SDS011;71734;50.876;7.372;2024-03-06T10:51:38;18.23;;;7.68;;
82159;SDS011;71734;50.876;7.372;2024-03-06T10:54:10;18.88;;;8.15;;
82159;SDS011;71734;50.876;7.372;2024-03-06T10:56:40;19.48;;;8.13;;
82159;SDS011;71734;50.876;7.372;2024-03-06T10:59:12;17.67;;;8.25;;
82159;SDS011;71734;50.876;7.372;2024-03-06T11:01:41;18.63;;;8.30;;
82159;SDS011;71734;50.876;7.372;2024-03-06T11:04:20;19.52;;;8.10;;
82159;SDS011;71734;50.876;7.372;2024-03-06T11:06:51;15.35;;;6.00;;
82159;SDS011;71734;50.876;7.372;2024-03-06T11:09:25;19.75;;;7.32;;
82159;SDS011;71734;50.876;7.372;2024-03-06T11:11:56;17.13;;;7.63;;
82159;SDS011;71734;50.876;7.372;2024-03-06T11:14:23;17.33;;;7.60;;
82159;SDS011;71734;50.876;7.372;2024-03-06T11:16:57;17.92;;;7.95;;
82159;SDS011;71734;50.876;7.372;2024-03-06T11:22:02;17.08;;;7.20;;
82159;SDS011;71734;50.876;7.372;2024-03-06T11:24:31;16.88;;;7.38;;
82159;SDS011;71734;50.876;7.372;2024-03-06T11:27:05;19.25;;;7.70;;
82159;SDS011;71734;50.876;7.372;2024-03-06T11:32:35;14.23;;;6.78;;
82159;SDS011;71734;50.876;7.372;2024-03-06T11:35:07;16.52;;;6.70;;
82159;SDS011;71734;50.876;7.372;2024-03-06T11:37:34;16.50;;;7.57;;
82159;SDS011;71734;50.876;7.372;2024-03-06T11:40:01;14.68;;;7.00;;
82159;SDS011;71734;50.876;7.372;2024-03-06T11:42:37;14.27;;;6.53;;
82159;SDS011;71734;50.876;7.372;2024-03-06T11:45:12;15.20;;;7.35;;
82159;SDS011;71734;50.876;7.372;2024-03-06T11:47:58;14.95;;;6.57;;
82159;SDS011;71734;50.876;7.372;2024-03-06T11:50:27;16.77;;;8.23;;
82159;SDS011;71734;50.876;7.372;2024-03-06T11:52:59;15.27;;;7.18;;
82159;SDS011;71734;50.876;7.372;2024-03-06T11:55:26;16.20;;;7.93;;
82159;SDS011;71734;50.876;7.372;2024-03-06T11:57:54;13.77;;;6.47;;
82159;SDS011;71734;50.876;7.372;2024-03-06T12:00:21;15.27;;;7.20;;
82159;SDS011;71734;50.876;7.372;2024-03-06T12:02:49;15.52;;;7.63;;
82159;SDS011;71734;50.876;7.372;2024-03-06T12:05:19;13.93;;;6.68;;
82159;SDS011;71734;50.876;7.372;2024-03-06T12:07:47;16.55;;;7.65;;
82159;SDS011;71734;50.876;7.372;2024-03-06T12:10:15;15.88;;;6.57;;
82159;SDS011;71734;50.876;7.372;2024-03-06T12:12:51;15.65;;;6.68;;
82159;SDS011;71734;50.876;7.372;2024-03-06T12:15:26;13.80;;;6.72;;
82159;SDS011;71734;50.876;7.372;2024-03-06T12:17:53;13.98;;;6.55;;
82159;SDS011;71734;50.876;7.372;2024-03-06T12:20:25;13.68;;;6.60;;
82159;SDS011;71734;50.876;7.372;2024-03-06T12:22:54;12.60;;;6.45;;
82159;SDS011;71734;50.876;7.372;2024-03-06T12:25:26;13.00;;;6.22;;
82159;SDS011;71734;50.876;7.372;2024-03-06T12:27:53;14.73;;;6.28;;
82159;SDS011;71734;50.876;7.372;2024-03-06T12:30:30;13.73;;;6.40;;
82159;SDS011;71734;50.876;7.372;2024-03-06T12:33:09;12.20;;;5.95;;
82159;SDS011;71734;50.876;7.372;2024-03-06T12:35:39;12.80;;;6.05;;
82159;SDS011;71734;50.876;7.372;2024-03-06T12:38:12;13.50;;;6.13;;
82159;SDS011;71734;50.876;7.372;2024-03-06T12:40:40;10.73;;;4.75;;
82159;SDS011;71734;50.876;7.372;2024-03-06T12:43:07;11.00;;;5.03;;
82159;SDS011;71734;50.876;7.372;2024-03-06T12:45:44;11.55;;;5.60;;
82159;SDS011;71734;50.876;7.372;2024-03-06T12:48:20;10.07;;;4.63;;
82159;SDS011;71734;50.876;7.372;2024-03-06T12:50:48;9.88;;;5.00;;
82159;SDS011;71734;50.876;7.372;2024-03-06T12:53:19;11.00;;;5.18;;
82159;SDS011;71734;50.876;7.372;2024-03-06T12:55:46;9.15;;;4.30;;
82159;SDS011;71734;50.876;7.372;2024-03-06T12:58:13;8.43;;;4.05;;
82159;SDS011;71734;50.876;7.372;2024-03-06T13:01:10;10.02;;;4.38;;
82159;SDS011;71734;50.876;7.372;2024-03-06T13:03:42;8.90;;;3.65;;
82159;SDS011;71734;50.876;7.372;2024-03-06T13:06:10;9.93;;;4.55;;
82159;SDS011;71734;50.876;7.372;2024-03-06T13:08:48;10.50;;;4.60;;
82159;SDS011;71734;50.876;7.372;2024-03-06T13:11:15;9.25;;;3.85;;
82159;SDS011;71734;50.876;7.372;2024-03-06T13:13:50;7.68;;;3.60;;
82159;SDS011;71734;50.876;7.372;2024-03-06T13:16:18;8.40;;;3.90;;
82159;SDS011;71734;50.876;7.372;2024-03-06T13:18:48;9.80;;;3.70;;
82159;SDS011;71734;50.876;7.372;2024-03-06T13:21:17;9.13;;;3.80;;
82159;SDS011;71734;50.876;7.372;2024-03-06T13:23:51;8.77;;;3.50;;
82159;SDS011;71734;50.876;7.372;2024-03-06T13:26:17;8.40;;;3.13;;
82159;SDS011;71734;50.876;7.372;2024-03-06T13:28:58;7.47;;;3.30;;
82159;SDS011;71734;50.876;7.372;2024-03-06T13:31:39;8.35;;;3.38;;
82159;SDS011;71734;50.876;7.372;2024-03-06T13:34:06;7.32;;;2.88;;
82159;SDS011;71734;50.876;7.372;2024-03-06T13:36:46;7.85;;;2.75;;
82159;SDS011;71734;50.876;7.372;2024-03-06T13:39:24;8.30;;;3.10;;
82159;SDS011;71734;50.876;7.372;2024-03-06T13:42:05;6.90;;;2.80;;
82159;SDS011;71734;50.876;7.372;2024-03-06T13:44:39;6.25;;;2.55;;
82159;SDS011;71734;50.876;7.372;2024-03-06T13:47:05;6.82;;;2.90;;
82159;SDS011;71734;50.876;7.372;2024-03-06T13:49:51;7.88;;;3.38;;
82159;SDS011;71734;50.876;7.372;2024-03-06T13:52:23;7.90;;;3.03;;
82159;SDS011;71734;50.876;7.372;2024-03-06T13:54:51;6.45;;;2.78;;
82159;SDS011;71734;50.876;7.372;2024-03-06T13:57:24;6.90;;;2.28;;
82159;SDS011;71734;50.876;7.372;2024-03-06T13:59:52;7.53;;;2.90;;
82159;SDS011;71734;50.876;7.372;2024-03-06T14:02:25;8.07;;;3.40;;
82159;SDS011;71734;50.876;7.372;2024-03-06T14:04:51;8.50;;;4.00;;
82159;SDS011;71734;50.876;7.372;2024-03-06T14:07:18;10.95;;;4.18;;
82159;SDS011;71734;50.876;7.372;2024-03-06T14:10:19;9.23;;;4.20;;
82159;SDS011;71734;50.876;7.372;2024-03-06T14:12:42;9.02;;;4.45;;
82159;SDS011;71734;50.876;7.372;2024-03-06T14:15:17;10.63;;;4.47;;
82159;SDS011;71734;50.876;7.372;2024-03-06T14:17:44;10.75;;;4.75;;
82159;SDS011;71734;50.876;7.372;2024-03-06T14:20:38;10.43;;;4.22;;
82159;SDS011;71734;50.876;7.372;2024-03-06T14:23:05;9.07;;;4.55;;
82159;SDS011;71734;50.876;7.372;2024-03-06T14:25:34;10.05;;;4.60;;
82159;SDS011;71734;50.876;7.372;2024-03-06T14:28:04;10.02;;;4.38;;
82159;SDS011;71734;50.876;7.372;2024-03-06T14:30:37;8.15;;;4.03;;
82159;SDS011;71734;50.876;7.372;2024-03-06T14:33:04;9.40;;;4.15;;
82159;SDS011;71734;50.876;7.372;2024-03-06T14:35:30;9.75;;;4.30;;
82159;SDS011;71734;50.876;7.372;2024-03-06T14:38:03;9.57;;;4.75;;
82159;SDS011;71734;50.876;7.372;2024-03-06T14:40:29;9.95;;;4.25;;
82159;SDS011;71734;50.876;7.372;2024-03-06T14:43:06;9.07;;;4.25;;
82159;SDS011;71734;50.876;7.372;2024-03-06T14:45:35;9.93;;;4.15;;
82159;SDS011;71734;50.876;7.372;2024-03-06T14:48:06;10.57;;;4.32;;